Skip Navigation Links
NOAA logo - Click to go to the NOAA homepage
NOAA's National Weather Service
Alaska Aviation Weather Unit
  NWS logo - Click to go to the NWS homepage
Left Navbar Graphic     10 AKDT = 18 GMT

   
NOAA is celebrating 200 years of science, service, and stewardship. Visit the NOAA 200th celebration Web site to learn more.
USA.gov is the U.S. Government's official Web portal to all Federal, state and local government Web resources and services.
Facebook
NWS on Facebook

Important Change Regarding the AAWU Web Presence

 

Over the last several months, the AAWU has been working to navigate its webpages to a nationally supported server. Security, as well as other needs, have necessitated the change.  We have been given an extension for the site changeover while we diligently work at addressing feedback received. As of July 14, 2017, aawu.arh.noaa.gov will be discontinued. The new AAWU web address is weather.gov/aawu. It is now live and will run in-parallel with the old site until it is discontinued on July 14, 2017. Please continue to send any feedback or questions regarding the new webpages to nws.ar.aawu.webauthors@noaa.gov.  Thank you for your patience during this time of transition.
AAWU Home :: Display TAF Add Bookmark
METAR PACZ 261255Z AUTO 03020KT 10SM CLR 04/02 A2992=

PACZ 261329Z AUTO 03020KT 10SM BKN022 05/02 A2993=

METAR PACZ 261355Z AUTO 03020KT 10SM BKN021 04/02 A2992=

PACZ 261414Z AUTO 04019KT 030V090 10SM SCT023 04/02 A2992=

PACZ 261429Z AUTO 03019KT 10SM BKN018 04/02 A2992=

METAR PACZ 261455Z AUTO 04021KT 10SM BKN015 04/02 A2991=

PACZ 261529Z AUTO 04017KT 020V080 10SM BKN017 04/02 A2992=

METAR PACZ 261555Z AUTO 03018KT 10SM BKN021 04/02 A2992=

METAR PACZ 261655Z AUTO 03025KT 10SM SCT022 04/02 A2990=

METAR PACZ 261755Z AUTO 04024KT 10SM CLR 04/01 A2991=


NOAA's National Weather Service
Alaska Aviation Weather Unit
6930 Sand Lake Road
Anchorage, AK 99502-1845
Disclaimer
Credits
Glossary
Privacy Policy
About Us
Career Opportunities
Contact AAWU Internet Services Site last modified: April, 17th 2012